Time;durP1;ratioP1;P1;durP2;ratioP2;P2;SDS_P1;SDS_P2;PMS_P1;PMS_P2;Temp;Humidity;BMP_temperature;BMP_pressure;BME280_temperature;BME280_humidity;BME280_pressure;Samples;Min_cycle;Max_cycle;Signal;HPM_P1;HPM_P2
2022/01/05 00:05:49;;;;;;;6.30;4.17;;;;;;;7.80;90.40;97152.30;4234212;83;21085;-92
2022/01/05 00:11:50;;;;;;;7.20;4.37;;;;;;;7.65;90.55;97163.91;4232119;83;21064;-89
2022/01/05 00:17:52;;;;;;;6.58;4.35;;;;;;;7.52;90.84;97184.59;4235480;83;21072;-90
2022/01/05 00:23:53;;;;;;;9.45;4.28;;;;;;;7.40;91.18;97193.23;4235248;83;21033;-89
2022/01/05 00:29:54;;;;;;;7.25;5.05;;;;;;;7.31;91.41;97184.70;4232699;83;21088;-90
2022/01/05 00:35:56;;;;;;;9.08;3.98;;;;;;;7.23;91.84;97200.90;4236652;83;20997;-90
2022/01/05 00:41:57;;;;;;;9.10;4.08;;;;;;;7.19;92.31;97184.37;4233073;83;20986;-89
2022/01/05 00:47:59;;;;;;;9.15;4.35;;;;;;;7.14;92.46;97216.09;4234059;83;21104;-91
2022/01/05 00:54:00;;;;;;;6.50;4.08;;;;;;;7.08;92.85;97212.23;4232522;83;21070;-88
2022/01/05 01:00:04;;;;;;;8.03;4.28;;;;;;;7.03;92.86;97209.31;4240969;83;21116;-91
2022/01/05 01:06:09;;;;;;;7.03;5.15;;;;;;;6.99;93.18;97218.08;4250955;82;21620;-88
2022/01/05 01:12:12;;;;;;;7.45;5.30;;;;;;;6.90;93.52;97216.94;4249989;82;22395;-91
2022/01/05 01:18:14;;;;;;;8.55;5.40;;;;;;;6.83;93.59;97225.14;4251695;82;21069;-89
2022/01/05 01:24:15;;;;;;;10.48;6.78;;;;;;;6.79;93.91;97214.83;4251928;82;21714;-90
2022/01/05 01:30:17;;;;;;;10.68;6.70;;;;;;;6.75;94.21;97230.39;4250140;82;21573;-90
2022/01/05 01:36:18;;;;;;;12.78;8.38;;;;;;;6.74;94.47;97232.33;4253284;82;21030;-94
2022/01/05 01:42:20;;;;;;;11.68;7.30;;;;;;;6.74;94.68;97226.89;4251587;82;22506;-89
2022/01/05 01:48:21;;;;;;;11.68;7.78;;;;;;;6.72;94.77;97221.05;4251596;82;22250;-90
2022/01/05 01:54:22;;;;;;;12.00;7.37;;;;;;;6.66;94.63;97233.50;4244881;82;21117;-89
2022/01/05 02:00:24;;;;;;;10.90;7.30;;;;;;;6.66;94.89;97232.72;4242470;82;21081;-88
2022/01/05 02:06:25;;;;;;;11.97;7.70;;;;;;;6.62;94.76;97243.63;4242607;82;21561;-90
2022/01/05 02:12:29;;;;;;;9.48;7.58;;;;;;;6.58;95.10;97244.19;4242563;82;21608;-94
2022/01/05 02:24:32;;;;;;;12.70;8.48;;;;;;;6.55;95.29;97264.58;4250314;82;21049;-88
2022/01/05 02:30:38;;;;;;;10.43;7.42;;;;;;;6.52;95.36;97281.09;4254251;82;21002;-89
2022/01/05 02:36:39;;;;;;;13.10;8.27;;;;;;;6.50;95.40;97277.23;4256978;82;20982;-88
2022/01/05 02:42:42;;;;;;;14.07;8.10;;;;;;;6.46;95.59;97271.00;4242471;82;21077;-89
2022/01/05 02:48:49;;;;;;;13.70;8.78;;;;;;;6.49;95.44;97279.16;4249487;82;21037;-89
2022/01/05 02:54:50;;;;;;;;;;;;;;;6.48;95.55;97284.41;4164955;84;21077;-91
2022/01/05 03:00:53;;;;;;;14.33;8.93;;;;;;;6.48;95.95;97264.59;4091239;85;20205;-91
2022/01/05 03:06:55;;;;;;;13.18;8.08;;;;;;;6.50;96.13;97275.87;4091480;85;21698;-91
2022/01/05 03:12:57;;;;;;;12.98;8.25;;;;;;;6.50;95.64;97256.23;4132260;85;21141;-90
2022/01/05 03:18:58;;;;;;;12.98;8.43;;;;;;;6.44;96.05;97261.88;4135017;84;21129;-89
2022/01/05 03:24:59;;;;;;;13.98;8.28;;;;;;;6.43;96.11;97249.45;4137008;84;21057;-90
2022/01/05 03:31:00;;;;;;;11.22;7.22;;;;;;;6.38;96.18;97232.18;4161737;84;21111;-90
2022/01/05 03:37:03;;;;;;;14.28;8.55;;;;;;;6.29;95.73;97208.70;4135658;85;21081;-89
2022/01/05 03:43:07;;;;;;;11.28;7.03;;;;;;;6.21;96.23;97211.23;4131769;85;21057;-89
2022/01/05 03:49:08;;;;;;;10.98;7.70;;;;;;;6.21;96.02;97214.73;4129361;85;22623;-90
2022/01/05 03:55:10;;;;;;;9.90;7.25;;;;;;;6.09;96.11;97202.12;4160484;84;21513;-90
2022/01/05 04:01:12;;;;;;;16.37;8.38;;;;;;;6.04;96.20;97191.06;4122486;85;21647;-91
2022/01/05 04:07:15;;;;;;;16.37;8.10;;;;;;;6.13;96.90;97211.03;4214012;83;21607;-90
2022/01/05 04:13:18;;;;;;;11.10;7.60;;;;;;;6.07;96.25;97185.42;4212648;83;21056;-90
2022/01/05 04:19:19;;;;;;;10.60;7.12;;;;;;;6.10;96.78;97247.13;4208081;83;21597;-91
2022/01/05 04:25:21;;;;;;;9.60;6.30;;;;;;;6.17;96.93;97231.59;4210702;83;21091;-90
2022/01/05 04:31:22;;;;;;;9.88;6.28;;;;;;;6.05;96.39;97233.34;4212449;83;21019;-89
2022/01/05 04:37:23;;;;;;;8.05;5.78;;;;;;;6.08;97.21;97244.80;4218765;83;21080;-89
2022/01/05 04:43:26;;;;;;;9.93;5.90;;;;;;;6.07;96.84;97256.84;4201984;83;23044;-90
2022/01/05 04:49:27;;;;;;;9.08;5.22;;;;;;;6.00;96.63;97259.53;4215310;83;21032;-89
2022/01/05 04:55:30;;;;;;;11.22;6.40;;;;;;;6.01;97.38;97261.08;4211331;83;21661;-90
2022/01/05 05:01:32;;;;;;;12.47;7.75;;;;;;;6.05;96.96;97271.38;4224778;83;21076;-90
2022/01/05 05:07:33;;;;;;;11.97;8.15;;;;;;;5.99;97.01;97272.14;4230901;83;21050;-90
2022/01/05 05:13:35;;;;;;;13.20;8.20;;;;;;;5.94;97.01;97278.73;4229640;82;21053;-89
2022/01/05 05:19:37;;;;;;;22.80;11.45;;;;;;;5.95;97.10;97274.09;4178021;82;27169;-90
2022/01/05 05:25:39;;;;;;;17.20;11.12;;;;;;;5.89;97.11;97284.53;4167771;84;21072;-90
2022/01/05 05:31:40;;;;;;;20.62;13.40;;;;;;;5.88;97.33;97281.63;4172952;84;21062;-91
2022/01/05 05:37:42;;;;;;;20.02;12.43;;;;;;;5.88;97.30;97280.28;4168132;84;21651;-90
2022/01/05 05:43:44;;;;;;;15.50;10.20;;;;;;;5.78;97.07;97284.30;4171712;84;21065;-89
2022/01/05 05:49:46;;;;;;;16.67;10.10;;;;;;;5.69;97.27;97288.73;4167022;84;21083;-89
2022/01/05 05:55:47;;;;;;;14.15;10.15;;;;;;;5.65;97.51;97283.88;4168981;84;21029;-89
2022/01/05 06:01:48;;;;;;;17.92;11.08;;;;;;;5.77;98.28;97284.88;4162391;84;21617;-90
2022/01/05 06:07:50;;;;;;;17.87;11.43;;;;;;;5.77;97.97;97271.87;4166815;84;21586;-91
2022/01/05 06:13:52;;;;;;;15.80;9.75;;;;;;;5.72;98.03;97276.31;4170955;84;21057;-91
2022/01/05 06:19:54;;;;;;;17.32;10.58;;;;;;;5.77;98.62;97287.59;4161321;84;21028;-90
2022/01/05 06:25:55;;;;;;;16.73;11.50;;;;;;;5.81;98.65;97308.73;4158464;84;21039;-91
2022/01/05 06:31:56;;;;;;;14.85;9.23;;;;;;;5.79;98.14;97279.06;4159595;84;21753;-90
2022/01/05 06:37:58;;;;;;;16.75;10.13;;;;;;;5.68;98.20;97272.82;4158585;84;21073;-90
2022/01/05 06:44:00;;;;;;;22.30;10.78;;;;;;;5.60;98.50;97281.53;4160219;84;21063;-89
2022/01/05 06:50:03;;;;;;;19.27;9.93;;;;;;;5.61;98.36;97287.72;4156034;84;21091;-88
2022/01/05 06:56:04;;;;;;;18.15;9.45;;;;;;;5.53;98.43;97297.02;4160588;84;21081;-90
2022/01/05 07:02:06;;;;;;;12.28;7.45;;;;;;;5.42;98.52;97298.91;4159260;84;21654;-90
2022/01/05 07:08:07;;;;;;;15.40;10.30;;;;;;;5.38;98.77;97312.46;4160129;84;21089;-90
2022/01/05 07:14:08;;;;;;;18.37;11.25;;;;;;;5.49;99.54;97326.06;4159250;85;21155;-90
2022/01/05 07:20:10;;;;;;;16.48;9.68;;;;;;;5.55;99.71;97324.53;4159999;84;21041;-92
2022/01/05 07:26:12;;;;;;;18.98;9.50;;;;;;;5.57;99.49;97326.30;4159735;85;21106;-90
2022/01/05 07:32:13;;;;;;;18.98;10.48;;;;;;;5.62;99.91;97326.69;4160515;84;21112;-88
2022/01/05 07:38:14;;;;;;;19.80;12.28;;;;;;;5.71;100.00;97327.70;4157022;84;21123;-90
2022/01/05 07:44:16;;;;;;;18.55;11.22;;;;;;;5.73;99.88;97312.58;4160174;84;22152;-89
2022/01/05 07:50:17;;;;;;;21.10;12.07;;;;;;;5.77;100.00;97320.74;4170768;84;22369;-90
2022/01/05 07:56:19;;;;;;;24.27;13.18;;;;;;;5.80;100.00;97310.47;4158856;84;21047;-90
2022/01/05 08:02:20;;;;;;;28.00;13.60;;;;;;;5.82;100.00;97304.11;4164302;84;21091;-88
2022/01/05 08:08:21;;;;;;;24.40;15.20;;;;;;;5.79;100.00;97297.49;4159096;84;21082;-92
2022/01/05 08:14:23;;;;;;;28.38;16.85;;;;;;;5.77;100.00;97286.80;4160281;84;21122;-88
2022/01/05 08:20:24;;;;;;;30.88;19.80;;;;;;;5.78;100.00;97294.56;4158357;84;21938;-92
2022/01/05 08:26:26;;;;;;;31.37;20.43;;;;;;;5.77;100.00;97307.16;4164383;84;21139;-89
2022/01/05 08:32:27;;;;;;;29.55;18.82;;;;;;;5.77;100.00;97305.81;4161077;85;21636;-89
2022/01/05 08:38:29;;;;;;;22.55;13.75;;;;;;;5.78;100.00;97306.78;4071726;86;21041;-90
2022/01/05 08:44:30;;;;;;;21.87;12.10;;;;;;;5.74;100.00;97312.80;4075601;86;21081;-88
2022/01/05 08:50:34;;;;;;;18.37;12.20;;;;;;;5.70;100.00;97316.06;4017585;87;21110;-89
2022/01/05 08:56:37;;;;;;;20.60;11.20;;;;;;;5.60;100.00;97299.17;4082822;85;21092;-90
2022/01/05 09:02:39;;;;;;;14.63;9.95;;;;;;;5.56;100.00;97308.47;4038743;86;21653;-88
2022/01/05 09:08:41;;;;;;;18.05;10.82;;;;;;;5.53;100.00;97322.20;4027214;87;21563;-90
2022/01/05 09:14:43;;;;;;;21.17;12.73;;;;;;;5.54;100.00;97343.34;4036249;87;21187;-89
2022/01/05 09:20:44;;;;;;;24.05;15.58;;;;;;;5.58;100.00;97353.63;4030351;87;21125;-91
2022/01/05 09:26:45;;;;;;;25.23;16.87;;;;;;;5.59;100.00;97361.39;4028730;87;21099;-88
2022/01/05 09:32:47;;;;;;;23.83;15.03;;;;;;;5.61;100.00;97361.00;4029643;87;22253;-89
2022/01/05 09:44:53;;;;;;;32.65;19.65;;;;;;;5.47;100.00;97373.16;4029244;87;21393;-88
2022/01/05 09:51:05;;;;;;;37.80;23.35;;;;;;;5.53;100.00;97373.77;4026761;87;21092;-93
2022/01/05 09:57:08;;;;;;;31.75;17.60;;;;;;;5.55;100.00;97370.11;4026521;87;21101;-91
2022/01/05 10:03:10;;;;;;;26.77;13.90;;;;;;;5.54;100.00;97372.63;4025217;87;21151;-91
2022/01/05 10:09:12;;;;;;;15.45;10.82;;;;;;;5.53;100.00;97370.30;4032949;87;21050;-89
2022/01/05 10:15:16;;;;;;;12.65;7.17;;;;;;;5.40;100.00;97371.20;4027502;87;21605;-88
2022/01/05 10:21:17;;;;;;;22.45;11.43;;;;;;;5.34;100.00;97369.98;4040092;87;21074;-89
2022/01/05 10:27:21;;;;;;;27.65;12.90;;;;;;;5.36;100.00;97361.47;4034742;87;21067;-89
2022/01/05 10:33:29;;;;;;;25.68;13.83;;;;;;;5.36;100.00;97346.54;4030773;87;21555;-89
2022/01/05 10:39:40;;;;;;;17.15;9.05;;;;;;;5.40;100.00;97352.21;4028080;88;21532;-90
2022/01/05 10:45:45;;;;;;;14.38;8.25;;;;;;;5.53;100.00;97345.27;4030704;87;21062;-91
2022/01/05 10:51:46;;;;;;;15.68;7.87;;;;;;;5.58;100.00;97348.98;4026071;87;21117;-89
2022/01/05 10:58:07;;;;;;;15.35;7.90;;;;;;;5.63;100.00;97349.98;4026331;87;21424;-90
2022/01/05 11:04:21;;;;;;;18.27;9.33;;;;;;;5.63;100.00;97341.05;4030153;86;21168;-93
2022/01/05 11:10:25;;;;;;;15.78;7.78;;;;;;;5.60;100.00;97320.89;4026780;87;21090;-88
2022/01/05 11:16:29;;;;;;;14.75;7.08;;;;;;;5.65;100.00;97320.53;4027499;88;21192;-91
2022/01/05 11:22:31;;;;;;;12.82;7.15;;;;;;;5.66;100.00;97308.50;4028061;88;21693;-95
2022/01/05 11:28:32;;;;;;;20.40;9.73;;;;;;;5.63;100.00;97317.98;4057776;86;21076;-90
2022/01/05 11:34:34;;;;;;;19.32;10.30;;;;;;;5.77;100.00;97310.67;4032238;87;22427;-92
2022/01/05 11:40:40;;;;;;;18.70;11.78;;;;;;;5.92;100.00;97302.02;4050083;85;21378;-91
2022/01/05 11:46:43;;;;;;;23.12;12.60;;;;;;;6.05;100.00;97313.48;4028525;87;21073;-90
2022/01/05 11:53:08;;;;;;;23.07;13.18;;;;;;;6.23;100.00;97293.14;4026740;88;21037;-90
2022/01/05 11:59:24;;;;;;;23.98;13.05;;;;;;;6.26;100.00;97325.73;4025463;87;21074;-89
2022/01/05 12:05:27;;;;;;;23.12;13.22;;;;;;;6.31;100.00;97331.39;4026188;87;21129;-90
2022/01/05 12:11:39;;;;;;;23.18;13.13;;;;;;;6.39;100.00;97330.20;4028142;87;21113;-90
2022/01/05 12:17:41;;;;;;;27.90;13.70;;;;;;;6.34;100.00;97340.13;4000930;87;21085;-91
2022/01/05 12:23:50;;;;;;;22.25;13.22;;;;;;;6.36;100.00;97311.95;4054703;86;21609;-91
2022/01/05 12:29:52;;;;;;;26.17;14.18;;;;;;;6.34;100.00;97328.66;4028943;88;21076;-89
2022/01/05 12:36:00;;;;;;;22.58;12.70;;;;;;;6.38;100.00;97350.41;4026907;87;21615;-90
2022/01/05 12:42:22;;;;;;;30.95;13.45;;;;;;;6.36;100.00;97341.28;4028876;87;21118;-89
2022/01/05 12:48:40;;;;;;;19.35;11.20;;;;;;;6.29;100.00;97339.92;3996557;87;22470;-92
2022/01/05 12:54:53;;;;;;;20.23;11.35;;;;;;;6.33;100.00;97354.86;4148627;84;21107;-92
2022/01/05 13:00:54;;;;;;;22.58;10.78;;;;;;;6.27;100.00;97343.60;4145639;83;21630;-89
2022/01/05 13:06:59;;;;;;;21.33;11.48;;;;;;;6.25;100.00;97332.91;4159702;85;21051;-89
2022/01/05 13:13:08;;;;;;;18.17;11.13;;;;;;;6.12;100.00;97330.38;4136019;84;21078;-90
2022/01/05 13:19:35;;;;;;;15.93;9.65;;;;;;;6.12;100.00;97340.64;4095965;85;21125;-89
2022/01/05 13:25:36;;;;;;;16.60;8.45;;;;;;;6.12;100.00;97328.42;4011508;87;21105;-90
2022/01/05 13:31:38;;;;;;;19.15;8.63;;;;;;;6.13;100.00;97343.58;4098260;84;20995;-90
2022/01/05 13:37:48;;;;;;;14.45;8.48;;;;;;;6.19;100.00;97349.39;4161366;84;21102;-93
2022/01/05 13:43:51;;;;;;;13.38;6.42;;;;;;;6.17;100.00;97361.25;4172286;84;21092;-89
2022/01/05 13:50:14;;;;;;;11.00;6.22;;;;;;;6.19;100.00;97369.20;4175695;84;21403;-90
2022/01/05 13:56:16;;;;;;;9.08;5.20;;;;;;;6.19;100.00;97356.19;4182155;84;21761;-90
2022/01/05 14:02:17;;;;;;;7.42;4.80;;;;;;;6.17;100.00;97374.23;4174436;84;21082;-91
2022/01/05 14:08:18;;;;;;;9.23;4.42;;;;;;;6.12;100.00;97371.89;4171589;84;21582;-89
2022/01/05 14:14:20;;;;;;;5.30;3.75;;;;;;;6.07;100.00;97373.64;4161251;84;21048;-90
2022/01/05 14:20:22;;;;;;;5.33;3.35;;;;;;;6.01;99.99;97383.30;4158841;84;21125;-93
2022/01/05 14:26:30;;;;;;;6.28;3.50;;;;;;;5.98;99.57;97392.22;4151817;84;21103;-92
2022/01/05 14:32:34;;;;;;;5.53;3.10;;;;;;;5.91;99.11;97406.36;4156753;84;21105;-91
2022/01/05 14:38:41;;;;;;;5.47;3.33;;;;;;;5.87;99.36;97410.41;4169094;84;21119;-90
2022/01/05 14:44:50;;;;;;;6.28;3.85;;;;;;;5.85;99.36;97418.19;4158438;84;21016;-90
2022/01/05 14:50:53;;;;;;;7.80;3.90;;;;;;;5.83;99.15;97415.63;4165070;83;21046;-90
2022/01/05 14:56:56;;;;;;;9.35;4.42;;;;;;;5.81;98.85;97416.59;4156826;84;21632;-88
2022/01/05 15:02:59;;;;;;;7.17;4.25;;;;;;;5.70;98.71;97410.33;4166020;83;21628;-91
2022/01/05 15:09:03;;;;;;;11.45;3.83;;;;;;;5.50;98.96;97413.89;4187591;84;21065;-91
2022/01/05 15:15:07;;;;;;;11.90;5.87;;;;;;;5.38;99.02;97422.36;4179031;84;21117;-91
2022/01/05 15:21:12;;;;;;;26.23;12.23;;;;;;;5.31;99.18;97425.61;4180190;84;21120;-89
2022/01/05 15:27:14;;;;;;;27.30;13.13;;;;;;;5.27;99.34;97429.65;4106329;86;21116;-90
2022/01/05 15:33:15;;;;;;;22.42;11.50;;;;;;;5.29;99.36;97433.34;4030611;87;21090;-88
2022/01/05 15:39:18;;;;;;;24.12;10.65;;;;;;;5.31;99.34;97437.22;4169058;84;21073;-90
2022/01/05 15:45:19;;;;;;;26.07;11.88;;;;;;;5.37;99.31;97441.73;4179606;84;21093;-90
2022/01/05 15:51:21;;;;;;;21.15;10.78;;;;;;;5.40;99.36;97443.69;4176693;84;21038;-90
2022/01/05 16:03:39;;;;;;;22.22;11.40;;;;;;;5.49;99.16;97453.05;4180184;83;21156;-90
2022/01/05 16:09:41;;;;;;;23.42;10.80;;;;;;;5.51;99.04;97448.61;4188956;82;21084;-92
2022/01/05 16:15:46;;;;;;;21.20;11.18;;;;;;;5.48;99.27;97447.41;4195744;82;21233;-91
2022/01/05 16:21:49;;;;;;;23.47;9.90;;;;;;;5.48;99.08;97449.36;4189122;84;21097;-90
2022/01/05 16:27:53;;;;;;;10.53;5.55;;;;;;;5.50;98.76;97469.53;4190272;84;21552;-90
2022/01/05 16:33:55;;;;;;;10.80;5.20;;;;;;;5.55;98.61;97488.18;4187768;84;21720;-90
2022/01/05 16:39:59;;;;;;;9.60;4.58;;;;;;;5.59;98.35;97479.47;4185117;84;21600;-91
2022/01/05 16:46:06;;;;;;;9.73;5.55;;;;;;;5.61;98.10;97483.95;4186655;82;21017;-90
2022/01/05 16:52:08;;;;;;;12.28;6.12;;;;;;;5.60;97.91;97483.77;4194383;84;21101;-90
2022/01/05 17:04:33;;;;;;;15.93;8.90;;;;;;;5.51;98.08;97518.58;4186289;83;21069;-91
2022/01/05 17:10:36;;;;;;;23.05;11.12;;;;;;;5.44;98.09;97539.45;4153468;84;21679;-90
2022/01/05 17:16:39;;;;;;;13.40;7.83;;;;;;;5.23;97.61;97561.77;4146855;85;21117;-89
2022/01/05 17:22:42;;;;;;;17.32;8.98;;;;;;;4.90;97.36;97595.75;4151535;84;21623;-89
2022/01/05 17:28:43;;;;;;;12.65;7.40;;;;;;;4.63;97.20;97629.50;4156874;84;21573;-89
2022/01/05 17:34:45;;;;;;;13.48;8.53;;;;;;;4.33;97.19;97651.17;4150473;84;21142;-90
2022/01/05 17:40:46;;;;;;;14.45;9.15;;;;;;;4.17;97.56;97663.30;4028866;84;9999625;-90
2022/01/05 17:46:49;;;;;;;15.03;7.80;;;;;;;4.07;97.58;97672.83;4153904;84;21076;-89
2022/01/05 17:52:50;;;;;;;17.62;7.90;;;;;;;3.95;97.36;97683.87;4150404;84;21045;-91
2022/01/05 17:58:52;;;;;;;21.97;11.05;;;;;;;3.82;97.50;97697.38;4147099;84;21123;-89
2022/01/05 18:04:53;;;;;;;15.35;8.38;;;;;;;3.79;97.47;97725.16;4159317;84;21113;-91
2022/01/05 18:10:55;;;;;;;17.95;9.75;;;;;;;3.69;97.42;97746.08;4174805;84;21165;-93
2022/01/05 18:16:58;;;;;;;19.60;10.55;;;;;;;3.56;97.21;97773.64;4170802;84;21967;-92
2022/01/05 18:23:02;;;;;;;12.35;7.97;;;;;;;3.33;96.87;97764.70;4173748;84;21550;-89
2022/01/05 18:29:04;;;;;;;12.47;5.78;;;;;;;3.29;97.26;97774.09;4168969;84;21612;-90
2022/01/05 18:35:09;;;;;;;25.37;13.43;;;;;;;3.01;97.09;97767.55;4142736;84;21101;-90
2022/01/05 18:41:11;;;;;;;11.20;6.95;;;;;;;2.84;96.98;97766.61;4142836;84;22341;-89
2022/01/05 18:47:14;;;;;;;11.57;6.55;;;;;;;2.76;96.90;97766.23;4159630;84;21011;-89
2022/01/05 18:53:15;;;;;;;16.45;7.70;;;;;;;2.79;97.24;97774.19;4152835;84;21039;-89
2022/01/05 18:59:18;;;;;;;22.02;9.10;;;;;;;2.73;96.88;97772.34;4140835;84;21099;-91
2022/01/05 19:05:21;;;;;;;17.35;9.60;;;;;;;2.70;96.78;97780.37;4139924;84;21085;-89
2022/01/05 19:11:23;;;;;;;20.55;10.75;;;;;;;2.73;96.76;97783.16;4140939;84;21058;-91
2022/01/05 19:17:25;;;;;;;21.05;9.90;;;;;;;2.74;96.72;97806.92;4138948;85;21119;-91
2022/01/05 19:23:27;;;;;;;15.18;7.28;;;;;;;2.73;96.83;97820.20;4116231;84;21078;-90
2022/01/05 19:29:28;;;;;;;13.78;7.47;;;;;;;2.72;96.49;97822.70;4139194;84;21727;-89
2022/01/05 19:35:29;;;;;;;20.80;8.58;;;;;;;2.69;96.40;97833.62;4139797;84;21053;-89
2022/01/05 19:41:30;;;;;;;16.95;8.45;;;;;;;2.64;96.52;97833.12;4025205;84;10000267;-91
2022/01/05 19:47:32;;;;;;;17.07;7.28;;;;;;;2.57;96.13;97828.92;4144153;84;21103;-89
2022/01/05 19:53:46;;;;;;;19.25;8.25;;;;;;;2.53;96.30;97842.33;4143277;84;21082;-93
2022/01/05 19:59:41;;;;;;;25.92;9.80;;;;;;;2.55;96.41;97834.64;4141983;84;21081;-89
2022/01/05 20:05:43;;;;;;;22.30;10.50;;;;;;;2.56;96.37;97833.52;4142086;84;21479;-91
2022/01/05 20:11:45;;;;;;;20.72;10.72;;;;;;;2.54;96.12;97826.89;4141428;84;21060;-92
2022/01/05 20:17:48;;;;;;;26.12;11.40;;;;;;;2.47;96.36;97830.79;4144535;84;21099;-89
2022/01/05 20:23:52;;;;;;;32.28;12.95;;;;;;;2.40;95.80;97838.70;4150083;84;21022;-90
2022/01/05 20:29:55;;;;;;;25.12;12.63;;;;;;;2.39;96.30;97841.20;4142276;84;21611;-88
2022/01/05 20:35:57;;;;;;;25.23;12.60;;;;;;;2.33;95.93;97856.09;4138846;84;21137;-90
2022/01/05 20:42:02;;;;;;;28.32;12.73;;;;;;;2.17;95.83;97853.95;4139459;84;21056;-90
2022/01/05 20:48:09;;;;;;;23.65;12.58;;;;;;;2.11;96.39;97842.64;4142888;84;22313;-88
2022/01/05 20:54:11;;;;;;;30.68;13.43;;;;;;;2.00;95.85;97862.38;4143313;84;21097;-90
2022/01/05 21:00:18;;;;;;;31.62;14.15;;;;;;;1.92;96.00;97874.11;4140509;84;21146;-89
2022/01/05 21:06:21;;;;;;;30.15;14.58;;;;;;;1.84;95.93;97873.70;4143964;84;21145;-89
2022/01/05 21:12:25;;;;;;;17.73;9.55;;;;;;;1.82;95.72;97880.03;4143362;84;21173;-90
2022/01/05 21:18:27;;;;;;;19.57;8.25;;;;;;;1.85;95.11;97864.49;4143069;84;21196;-89
2022/01/05 21:24:29;;;;;;;14.25;6.62;;;;;;;1.88;95.17;97878.06;4139468;84;21645;-89
2022/01/05 21:30:40;;;;;;;15.68;5.87;;;;;;;1.86;94.54;97880.34;4139795;85;21130;-90
2022/01/05 21:36:42;;;;;;;14.87;6.33;;;;;;;1.84;94.10;97883.94;4138288;86;21066;-90
2022/01/05 21:42:48;;;;;;;11.95;6.72;;;;;;;1.78;94.09;97885.32;4142206;86;21044;-89
2022/01/05 21:48:53;;;;;;;15.32;5.47;;;;;;;1.71;93.82;97896.48;4145410;84;21571;-89
2022/01/05 21:54:54;;;;;;;11.88;5.00;;;;;;;1.61;93.75;97896.41;4141758;86;21131;-89
2022/01/05 22:00:57;;;;;;;11.10;5.35;;;;;;;1.58;93.58;97904.59;4142267;84;21601;-89
2022/01/05 22:06:58;;;;;;;13.53;5.60;;;;;;;1.55;93.45;97894.50;4154115;84;21083;-89
2022/01/05 22:13:03;;;;;;;12.60;5.60;;;;;;;1.55;93.40;97887.75;4121861;85;21588;-89
2022/01/05 22:19:05;;;;;;;12.75;5.70;;;;;;;1.51;93.11;97887.44;4124401;85;21053;-90
2022/01/05 22:25:07;;;;;;;14.53;5.62;;;;;;;1.49;92.74;97883.73;4116743;86;21584;-90
2022/01/05 22:31:09;;;;;;;17.07;6.12;;;;;;;1.49;92.76;97904.52;4112890;86;21086;-88
2022/01/05 22:37:12;;;;;;;8.58;4.30;;;;;;;1.51;92.55;97899.02;4193793;83;21607;-89
2022/01/05 22:43:15;;;;;;;7.47;4.65;;;;;;;1.56;91.95;97910.92;4192373;83;21051;-88
2022/01/05 22:49:22;;;;;;;10.80;4.28;;;;;;;1.58;92.18;97908.64;4163019;85;21615;-92
2022/01/05 22:55:26;;;;;;;9.40;3.90;;;;;;;1.58;91.54;97924.06;4122015;86;22479;-89
2022/01/05 23:01:29;;;;;;;8.25;4.05;;;;;;;1.59;91.41;97921.58;4118697;85;21084;-89
2022/01/05 23:07:31;;;;;;;9.55;4.17;;;;;;;1.60;90.68;97924.48;4114904;86;21050;-90
2022/01/05 23:13:34;;;;;;;12.28;4.40;;;;;;;1.54;90.55;97923.16;4100008;84;21034;-90
2022/01/05 23:19:41;;;;;;;11.88;3.98;;;;;;;1.47;90.58;97912.95;4100221;86;21033;-88
2022/01/05 23:25:48;;;;;;;11.68;3.87;;;;;;;1.44;90.43;97911.52;4109931;85;21051;-89
2022/01/05 23:31:52;;;;;;;8.98;4.08;;;;;;;1.40;90.60;97917.36;4149737;85;21653;-89
2022/01/05 23:37:59;;;;;;;12.13;4.75;;;;;;;1.35;89.90;97921.63;4149438;84;21081;-89
2022/01/05 23:44:03;;;;;;;11.65;4.12;;;;;;;1.36;89.85;97914.55;4150091;86;21118;-89
2022/01/05 23:50:05;;;;;;;7.97;3.27;;;;;;;1.42;89.94;97924.55;4149519;84;21079;-90
2022/01/05 23:56:07;;;;;;;14.58;4.30;;;;;;;1.47;89.87;97927.78;4149958;85;21084;-90
